Terminal Aerodrome Forecast
Issued by NWS

Home | Current Version | Previous Version | Graphics & Text | Print | Product List | Glossary On
Versions: 1 2 3 4 5 6 7 8 9 10 11 12 13 14 15 16 17 18 19 20 21 22 23 24 25 26 27 28 29
000
FTUS43 KGRB 012339
TAFRHI
TAF
KRHI 012339Z 0200/0224 24005KT P6SM BKN110
     FM020800 22006KT P6SM SCT050 BKN090
      TEMPO 0208/0212 5SM -TSRA BR BKN050CB
     FM021400 25008G15KT P6SM SCT035 BKN070
     FM021900 30008G15KT P6SM SCT035 BKN070=

USA.gov is the U.S. government's official web portal to all federal, state and local government web resources and services.